DLH560 EDDF-FNLU
Flight info
| Callsign | DLH560 |
|---|---|
| Flight time | N/A |
| Altitude | 35000 |
| Route | ANEKI6E ANEKI Y163 NATOR DCT TRA DCT RIPUS DCT GERSA DCT SOSON DCT ODINA DCT PIDAD DCT TALEP DCT VAREK DCT ERPIN DCT ETOIL DCT CIRTA UA605 CSO UM998 BOD/N0481F370 UR978 AS UA604 KOKAM/N0478F390 UA604 DLA UG861 MESIN UY339 LIKAD UR526 VNA DCT |
| Aircraft | A346/H-SDE2E3FGHIJ3J4J5M1RWXY/LB1D1 |
Departure
| Time | 2026-05-08 02:41 |
|---|---|
| Airport | Frankfurt Main Airport (EDDF) |
Arrival
| Time | N/A |
|---|---|
| Airport | Quatro de Fevereiro International Airport (FNLU) |
| Time | Latitude | Longitude | Altitude | Speed | Heading |
|---|---|---|---|---|---|
| 2026-05-08 01:51 | 50.03855 | 8.54687 | 357 ft | 0 kts | 159° |
| 2026-05-08 02:28 | 50.03856 | 8.54687 | 357 ft | 1 kts | 159° |
| 2026-05-08 02:28 | 50.03878 | 8.54674 | 363 ft | 4 kts | 159° |
| 2026-05-08 02:29 | 50.03900 | 8.54662 | 362 ft | 4 kts | 165° |
| 2026-05-08 02:29 | 50.03921 | 8.54659 | 357 ft | 4 kts | 197° |
| 2026-05-08 02:29 | 50.03935 | 8.54673 | 362 ft | 4 kts | 236° |
| 2026-05-08 02:29 | 50.03945 | 8.54709 | 362 ft | 4 kts | 251° |
| 2026-05-08 02:30 | 50.03952 | 8.54736 | 364 ft | 0 kts | 250° |
| 2026-05-08 02:35 | 50.03951 | 8.54734 | 358 ft | 1 kts | 250° |
| 2026-05-08 02:36 | 50.03945 | 8.54708 | 358 ft | 4 kts | 249° |
| 2026-05-08 02:36 | 50.03931 | 8.54652 | 360 ft | 7 kts | 249° |
| 2026-05-08 02:36 | 50.03911 | 8.54566 | 358 ft | 10 kts | 249° |
| 2026-05-08 02:36 | 50.03882 | 8.54448 | 362 ft | 13 kts | 248° |
| 2026-05-08 02:37 | 50.03835 | 8.54317 | 362 ft | 15 kts | 237° |
| 2026-05-08 02:37 | 50.03788 | 8.54170 | 360 ft | 16 kts | 248° |
| 2026-05-08 02:37 | 50.03746 | 8.54005 | 358 ft | 17 kts | 250° |
| 2026-05-08 02:37 | 50.03705 | 8.53830 | 358 ft | 18 kts | 249° |
| 2026-05-08 02:38 | 50.03658 | 8.53634 | 357 ft | 20 kts | 249° |
| 2026-05-08 02:38 | 50.03610 | 8.53465 | 357 ft | 14 kts | 234° |
| 2026-05-08 02:38 | 50.03529 | 8.53371 | 350 ft | 15 kts | 207° |
| 2026-05-08 02:38 | 50.03425 | 8.53318 | 353 ft | 17 kts | 178° |
| 2026-05-08 02:39 | 50.03326 | 8.53408 | 351 ft | 10 kts | 127° |
| 2026-05-08 02:39 | 50.03306 | 8.53449 | 353 ft | 5 kts | 127° |
| 2026-05-08 02:39 | 50.03286 | 8.53497 | 354 ft | 6 kts | 116° |
| 2026-05-08 02:39 | 50.03288 | 8.53564 | 356 ft | 7 kts | 66° |
| 2026-05-08 02:40 | 50.03309 | 8.53642 | 349 ft | 8 kts | 70° |
| 2026-05-08 02:40 | 50.03329 | 8.53734 | 350 ft | 10 kts | 71° |
| 2026-05-08 02:40 | 50.03353 | 8.53841 | 357 ft | 11 kts | 70° |
| 2026-05-08 02:40 | 50.03430 | 8.54155 | 353 ft | 66 kts | 70° |
| 2026-05-08 02:41 | 50.03677 | 8.55187 | 356 ft | 135 kts | 70° |
| 2026-05-08 02:41 | 50.04069 | 8.56846 | 388 ft | 188 kts | 68° |
| 2026-05-08 02:41 | 50.04549 | 8.58860 | 850 ft | 206 kts | 68° |
| 2026-05-08 02:41 | 50.05052 | 8.61052 | 1483 ft | 225 kts | 75° |
| 2026-05-08 02:42 | 50.05225 | 8.63588 | 2121 ft | 246 kts | 92° |
| 2026-05-08 02:42 | 50.04764 | 8.66180 | 2758 ft | 255 kts | 120° |
| 2026-05-08 02:42 | 50.03487 | 8.68116 | 3392 ft | 263 kts | 155° |
| 2026-05-08 02:42 | 50.01698 | 8.68501 | 4145 ft | 265 kts | 191° |
| 2026-05-08 02:43 | 49.99976 | 8.67503 | 4883 ft | 267 kts | 209° |
| 2026-05-08 02:43 | 49.98448 | 8.65832 | 5650 ft | 268 kts | 219° |
| 2026-05-08 02:43 | 49.97003 | 8.63964 | 6302 ft | 274 kts | 219° |
| 2026-05-08 02:43 | 49.95499 | 8.62080 | 6938 ft | 280 kts | 218° |
| 2026-05-08 02:44 | 49.93910 | 8.60291 | 7648 ft | 281 kts | 213° |
| 2026-05-08 02:44 | 49.92361 | 8.58465 | 8439 ft | 279 kts | 222° |
| 2026-05-08 02:44 | 49.90882 | 8.56564 | 9134 ft | 281 kts | 216° |
| 2026-05-08 02:44 | 49.89207 | 8.54946 | 9759 ft | 285 kts | 208° |
| 2026-05-08 02:45 | 49.87340 | 8.53877 | 10370 ft | 289 kts | 192° |
| 2026-05-08 02:45 | 49.85302 | 8.53578 | 10778 ft | 303 kts | 181° |
| 2026-05-08 02:45 | 49.83140 | 8.53686 | 11069 ft | 318 kts | 179° |
| 2026-05-08 02:45 | 49.80880 | 8.53875 | 11428 ft | 329 kts | 179° |
| 2026-05-08 02:46 | 49.78584 | 8.53988 | 12003 ft | 332 kts | 182° |
| 2026-05-08 02:46 | 49.76263 | 8.53853 | 12638 ft | 333 kts | 186° |
| 2026-05-08 02:46 | 49.73945 | 8.53552 | 13250 ft | 335 kts | 187° |
| 2026-05-08 02:46 | 49.71614 | 8.53241 | 13819 ft | 337 kts | 187° |
| 2026-05-08 02:47 | 49.69269 | 8.52929 | 14393 ft | 340 kts | 187° |
| 2026-05-08 02:47 | 49.66896 | 8.52614 | 14956 ft | 343 kts | 187° |
| 2026-05-08 02:47 | 49.64514 | 8.52299 | 15501 ft | 345 kts | 187° |
| 2026-05-08 02:47 | 49.62114 | 8.51983 | 16045 ft | 348 kts | 187° |
| 2026-05-08 02:48 | 49.59690 | 8.51664 | 16568 ft | 350 kts | 187° |
| 2026-05-08 02:48 | 49.57257 | 8.51343 | 17084 ft | 352 kts | 187° |
| 2026-05-08 02:48 | 49.54805 | 8.51020 | 17589 ft | 355 kts | 187° |
| 2026-05-08 02:48 | 49.52336 | 8.50696 | 18085 ft | 357 kts | 187° |
| 2026-05-08 02:49 | 49.49849 | 8.50370 | 18569 ft | 360 kts | 187° |
| 2026-05-08 02:49 | 49.47380 | 8.50047 | 19033 ft | 362 kts | 187° |
| 2026-05-08 02:49 | 49.44826 | 8.49714 | 19497 ft | 365 kts | 187° |
| 2026-05-08 02:49 | 49.42316 | 8.49388 | 19942 ft | 367 kts | 187° |
| 2026-05-08 02:50 | 49.39759 | 8.49056 | 20383 ft | 370 kts | 187° |
| 2026-05-08 02:50 | 49.37187 | 8.48720 | 20825 ft | 372 kts | 187° |
| 2026-05-08 02:50 | 49.34598 | 8.48383 | 21252 ft | 375 kts | 187° |
| 2026-05-08 02:50 | 49.31989 | 8.48044 | 21677 ft | 377 kts | 187° |
| 2026-05-08 02:51 | 49.29374 | 8.47704 | 22090 ft | 379 kts | 187° |
| 2026-05-08 02:51 | 49.26732 | 8.47359 | 22485 ft | 382 kts | 187° |
| 2026-05-08 02:51 | 49.24070 | 8.47011 | 22878 ft | 384 kts | 187° |
| 2026-05-08 02:51 | 49.21386 | 8.46660 | 23241 ft | 387 kts | 187° |
| 2026-05-08 02:52 | 49.18670 | 8.46307 | 23454 ft | 397 kts | 187° |
| 2026-05-08 02:52 | 49.15918 | 8.45950 | 23632 ft | 407 kts | 187° |
| 2026-05-08 02:52 | 49.13059 | 8.45578 | 23814 ft | 417 kts | 187° |
| 2026-05-08 02:52 | 49.10140 | 8.45199 | 23991 ft | 426 kts | 187° |
| 2026-05-08 02:53 | 49.07167 | 8.44687 | 24163 ft | 435 kts | 190° |
| 2026-05-08 02:53 | 49.04157 | 8.43904 | 24339 ft | 442 kts | 193° |
| 2026-05-08 02:53 | 49.01127 | 8.42869 | 24643 ft | 447 kts | 195° |
| 2026-05-08 02:53 | 48.98087 | 8.41808 | 25070 ft | 449 kts | 195° |
| 2026-05-08 02:54 | 48.95024 | 8.40746 | 25486 ft | 451 kts | 195° |
| 2026-05-08 02:54 | 48.91955 | 8.39685 | 25864 ft | 453 kts | 195° |
| 2026-05-08 02:54 | 48.88874 | 8.38619 | 26226 ft | 456 kts | 195° |
| 2026-05-08 02:54 | 48.85747 | 8.37539 | 26614 ft | 458 kts | 195° |
| 2026-05-08 02:55 | 48.82633 | 8.36463 | 26970 ft | 460 kts | 195° |
| 2026-05-08 02:55 | 48.76358 | 8.34267 | 27660 ft | 464 kts | 196° |
| 2026-05-08 02:55 | 48.73253 | 8.33128 | 27995 ft | 466 kts | 196° |
| 2026-05-08 02:56 | 48.70048 | 8.31946 | 28331 ft | 468 kts | 196° |
| 2026-05-08 02:56 | 48.66885 | 8.30785 | 28761 ft | 468 kts | 196° |
| 2026-05-08 02:56 | 48.63725 | 8.29634 | 29261 ft | 466 kts | 197° |
| 2026-05-08 02:56 | 48.60623 | 8.28510 | 29765 ft | 463 kts | 197° |
| 2026-05-08 02:57 | 48.57486 | 8.27397 | 30206 ft | 463 kts | 195° |
| 2026-05-08 02:57 | 48.54313 | 8.26529 | 30610 ft | 464 kts | 192° |
| 2026-05-08 02:57 | 48.51103 | 8.25974 | 31038 ft | 464 kts | 188° |
| 2026-05-08 02:57 | 48.47859 | 8.25740 | 31448 ft | 465 kts | 185° |
| 2026-05-08 02:58 | 48.44610 | 8.25828 | 31832 ft | 466 kts | 181° |
| 2026-05-08 02:58 | 48.41373 | 8.26239 | 32196 ft | 468 kts | 177° |
| 2026-05-08 02:58 | 48.38152 | 8.26954 | 32572 ft | 468 kts | 175° |
| 2026-05-08 02:58 | 48.34932 | 8.27748 | 32953 ft | 467 kts | 175° |
| 2026-05-08 02:59 | 48.31725 | 8.28536 | 33314 ft | 466 kts | 175° |
| 2026-05-08 02:59 | 48.28526 | 8.29314 | 33629 ft | 467 kts | 175° |
| 2026-05-08 02:59 | 48.25314 | 8.30092 | 33890 ft | 468 kts | 175° |
| 2026-05-08 02:59 | 48.22096 | 8.30868 | 34137 ft | 469 kts | 175° |
| 2026-05-08 03:00 | 48.18870 | 8.31642 | 34386 ft | 470 kts | 175° |
| 2026-05-08 03:00 | 48.15633 | 8.32419 | 34623 ft | 471 kts | 175° |
| 2026-05-08 03:00 | 48.13487 | 8.32935 | 34770 ft | 472 kts | 175° |
| 2026-05-08 03:00 | 48.10237 | 8.33718 | 34980 ft | 474 kts | 175° |
| 2026-05-08 03:01 | 48.06977 | 8.34505 | 35051 ft | 476 kts | 175° |
| 2026-05-08 03:01 | 48.00441 | 8.36087 | 35058 ft | 476 kts | 175° |
| 2026-05-08 03:02 | 47.93902 | 8.37667 | 35064 ft | 476 kts | 175° |
| 2026-05-08 03:02 | 47.87359 | 8.39243 | 35065 ft | 475 kts | 175° |
| 2026-05-08 03:03 | 47.80882 | 8.40797 | 35055 ft | 469 kts | 174° |
| 2026-05-08 03:03 | 47.74497 | 8.42335 | 35055 ft | 468 kts | 175° |
| 2026-05-08 03:04 | 47.68020 | 8.43787 | 35054 ft | 466 kts | 178° |
| 2026-05-08 03:04 | 47.61553 | 8.44729 | 35046 ft | 466 kts | 178° |
| 2026-05-08 03:05 | 47.55116 | 8.45687 | 35044 ft | 466 kts | 178° |
| 2026-05-08 03:05 | 47.48653 | 8.46641 | 35042 ft | 466 kts | 178° |
| 2026-05-08 03:06 | 47.42225 | 8.47588 | 35045 ft | 466 kts | 178° |
| 2026-05-08 03:06 | 47.35807 | 8.48532 | 35044 ft | 465 kts | 178° |
| 2026-05-08 03:07 | 47.29366 | 8.49477 | 35043 ft | 465 kts | 179° |
| 2026-05-08 03:07 | 47.22929 | 8.50413 | 35044 ft | 464 kts | 179° |
| 2026-05-08 03:08 | 47.16503 | 8.51347 | 35043 ft | 463 kts | 179° |
| 2026-05-08 03:08 | 47.10080 | 8.52283 | 35041 ft | 463 kts | 179° |
| 2026-05-08 03:09 | 47.03713 | 8.53207 | 35048 ft | 462 kts | 179° |
| 2026-05-08 03:09 | 46.97307 | 8.54125 | 35040 ft | 462 kts | 179° |
| 2026-05-08 03:10 | 46.90905 | 8.55043 | 35043 ft | 461 kts | 179° |
| 2026-05-08 03:10 | 46.84520 | 8.55961 | 35045 ft | 461 kts | 179° |
| 2026-05-08 03:11 | 46.78141 | 8.56877 | 35041 ft | 460 kts | 179° |
| 2026-05-08 03:11 | 46.71788 | 8.57788 | 35040 ft | 460 kts | 179° |
| 2026-05-08 03:12 | 46.65422 | 8.58699 | 35051 ft | 459 kts | 179° |
| 2026-05-08 03:12 | 46.59110 | 8.59601 | 35051 ft | 459 kts | 179° |
| 2026-05-08 03:13 | 46.52746 | 8.60496 | 35059 ft | 458 kts | 179° |
| 2026-05-08 03:13 | 46.46409 | 8.61389 | 35061 ft | 458 kts | 179° |
| 2026-05-08 03:14 | 46.40070 | 8.62283 | 35059 ft | 458 kts | 179° |
| 2026-05-08 03:14 | 46.33764 | 8.63174 | 35060 ft | 457 kts | 179° |
| 2026-05-08 03:15 | 46.27424 | 8.64067 | 35082 ft | 458 kts | 179° |
| 2026-05-08 03:15 | 46.21091 | 8.64961 | 35062 ft | 457 kts | 179° |
| 2026-05-08 03:16 | 46.14760 | 8.65850 | 35072 ft | 457 kts | 179° |
| 2026-05-08 03:16 | 46.08423 | 8.66483 | 35070 ft | 454 kts | 184° |
| 2026-05-08 03:17 | 46.02109 | 8.66587 | 35059 ft | 454 kts | 184° |
| 2026-05-08 03:17 | 45.95809 | 8.66715 | 35059 ft | 452 kts | 184° |
| 2026-05-08 03:18 | 45.89510 | 8.66844 | 35040 ft | 451 kts | 184° |
| 2026-05-08 03:18 | 45.83230 | 8.66970 | 35036 ft | 451 kts | 184° |
| 2026-05-08 03:19 | 45.76949 | 8.67095 | 35039 ft | 451 kts | 184° |
| 2026-05-08 03:19 | 45.70674 | 8.67219 | 35025 ft | 451 kts | 184° |
| 2026-05-08 03:20 | 45.64439 | 8.67341 | 35024 ft | 450 kts | 184° |
| 2026-05-08 03:20 | 45.58168 | 8.67464 | 35024 ft | 450 kts | 184° |
| 2026-05-08 03:21 | 45.51903 | 8.67587 | 35035 ft | 450 kts | 184° |
| 2026-05-08 03:21 | 45.45635 | 8.67709 | 35042 ft | 450 kts | 184° |
| 2026-05-08 03:22 | 45.39373 | 8.67830 | 35043 ft | 450 kts | 184° |
| 2026-05-08 03:22 | 45.33102 | 8.67952 | 35037 ft | 450 kts | 184° |
| 2026-05-08 03:23 | 45.26845 | 8.68072 | 35035 ft | 450 kts | 184° |
| 2026-05-08 03:23 | 45.20606 | 8.68193 | 35035 ft | 450 kts | 184° |
| 2026-05-08 03:24 | 45.14334 | 8.68314 | 35026 ft | 450 kts | 184° |
| 2026-05-08 03:24 | 45.08074 | 8.68435 | 35026 ft | 450 kts | 184° |
| 2026-05-08 03:25 | 45.01811 | 8.68553 | 35023 ft | 450 kts | 183° |
| 2026-05-08 03:25 | 44.95566 | 8.68674 | 35009 ft | 450 kts | 183° |
| 2026-05-08 03:26 | 44.89298 | 8.68794 | 35014 ft | 449 kts | 183° |
| 2026-05-08 03:26 | 44.83044 | 8.68914 | 35000 ft | 449 kts | 183° |
| 2026-05-08 03:27 | 44.76796 | 8.69033 | 34984 ft | 449 kts | 183° |
| 2026-05-08 03:27 | 44.70545 | 8.69151 | 34980 ft | 449 kts | 183° |
| 2026-05-08 03:28 | 44.64289 | 8.69270 | 34978 ft | 449 kts | 183° |
| 2026-05-08 03:28 | 44.58045 | 8.69389 | 34973 ft | 449 kts | 183° |
| 2026-05-08 03:29 | 44.51797 | 8.69507 | 34970 ft | 449 kts | 183° |
| 2026-05-08 03:29 | 44.45585 | 8.69623 | 34969 ft | 449 kts | 183° |
| 2026-05-08 03:30 | 44.36229 | 8.69800 | 34969 ft | 449 kts | 183° |
| 2026-05-08 03:31 | 44.23755 | 8.70035 | 34971 ft | 449 kts | 183° |
| 2026-05-08 03:32 | 44.14403 | 8.70210 | 34971 ft | 448 kts | 183° |
| 2026-05-08 03:32 | 44.08178 | 8.70327 | 34976 ft | 448 kts | 183° |
| 2026-05-08 03:33 | 44.01956 | 8.70444 | 34978 ft | 448 kts | 183° |
| 2026-05-08 03:33 | 43.95742 | 8.70557 | 34978 ft | 448 kts | 182° |
| 2026-05-08 03:34 | 43.89545 | 8.70672 | 34978 ft | 448 kts | 182° |
| 2026-05-08 03:34 | 43.83313 | 8.70791 | 34978 ft | 448 kts | 182° |
| 2026-05-08 03:35 | 43.77079 | 8.70910 | 34980 ft | 448 kts | 182° |
| 2026-05-08 03:35 | 43.70854 | 8.71029 | 34978 ft | 448 kts | 182° |
| 2026-05-08 03:36 | 43.64630 | 8.71147 | 34978 ft | 448 kts | 182° |
| 2026-05-08 03:36 | 43.58403 | 8.71207 | 34978 ft | 448 kts | 183° |
| 2026-05-08 03:37 | 43.52221 | 8.70823 | 34979 ft | 446 kts | 189° |
| 2026-05-08 03:37 | 43.46144 | 8.69400 | 34979 ft | 443 kts | 195° |
| 2026-05-08 03:38 | 43.40309 | 8.66997 | 34979 ft | 441 kts | 202° |
| 2026-05-08 03:38 | 43.34704 | 8.63662 | 34979 ft | 440 kts | 206° |
| 2026-05-08 03:39 | 43.29181 | 8.60097 | 34978 ft | 440 kts | 206° |
| 2026-05-08 03:39 | 43.23646 | 8.56531 | 34979 ft | 440 kts | 206° |
| 2026-05-08 03:40 | 43.18111 | 8.52969 | 34980 ft | 440 kts | 206° |
| 2026-05-08 03:40 | 43.12565 | 8.49405 | 34978 ft | 440 kts | 206° |
| 2026-05-08 03:41 | 43.07017 | 8.45846 | 34973 ft | 440 kts | 206° |
| 2026-05-08 03:41 | 43.01509 | 8.42321 | 34970 ft | 441 kts | 206° |
| 2026-05-08 03:42 | 42.95961 | 8.38776 | 34970 ft | 441 kts | 206° |
| 2026-05-08 03:42 | 42.90393 | 8.35227 | 34969 ft | 441 kts | 206° |
| 2026-05-08 03:43 | 42.84879 | 8.31719 | 34970 ft | 441 kts | 206° |
| 2026-05-08 03:43 | 42.79355 | 8.28210 | 34969 ft | 441 kts | 206° |
| 2026-05-08 03:44 | 42.73801 | 8.24691 | 34969 ft | 441 kts | 206° |
| 2026-05-08 03:44 | 42.68240 | 8.21174 | 34969 ft | 441 kts | 206° |
| 2026-05-08 03:45 | 42.62691 | 8.17673 | 34969 ft | 440 kts | 206° |
| 2026-05-08 03:45 | 42.57168 | 8.14194 | 34969 ft | 441 kts | 206° |
| 2026-05-08 03:46 | 42.51606 | 8.10698 | 34968 ft | 441 kts | 205° |
| 2026-05-08 03:46 | 42.46032 | 8.07203 | 34963 ft | 441 kts | 205° |
| 2026-05-08 03:47 | 42.41438 | 8.04330 | 34962 ft | 441 kts | 205° |
| 2026-05-08 03:47 | 42.35884 | 8.00863 | 34969 ft | 441 kts | 205° |
| 2026-05-08 03:48 | 42.30297 | 7.97452 | 34969 ft | 441 kts | 203° |
| 2026-05-08 03:48 | 42.24621 | 7.94321 | 34970 ft | 441 kts | 203° |
| 2026-05-08 03:49 | 42.18971 | 7.91197 | 34969 ft | 442 kts | 203° |
| 2026-05-08 03:49 | 42.13289 | 7.88069 | 34970 ft | 441 kts | 203° |
| 2026-05-08 03:50 | 42.07639 | 7.84969 | 34969 ft | 441 kts | 203° |
| 2026-05-08 03:50 | 42.01978 | 7.81872 | 34970 ft | 441 kts | 203° |
| 2026-05-08 03:51 | 41.96315 | 7.78780 | 34969 ft | 442 kts | 203° |
| 2026-05-08 03:51 | 41.90637 | 7.75685 | 34969 ft | 442 kts | 203° |
| 2026-05-08 03:52 | 41.84946 | 7.72591 | 34970 ft | 442 kts | 203° |
| 2026-05-08 03:52 | 41.79270 | 7.69510 | 34974 ft | 443 kts | 203° |
| 2026-05-08 03:53 | 41.73552 | 7.66415 | 34977 ft | 443 kts | 203° |
| 2026-05-08 03:53 | 41.67867 | 7.63346 | 34978 ft | 443 kts | 203° |
| 2026-05-08 03:54 | 41.62153 | 7.60285 | 34977 ft | 444 kts | 202° |
| 2026-05-08 03:54 | 41.56279 | 7.57750 | 34979 ft | 445 kts | 197° |
| 2026-05-08 03:55 | 41.50228 | 7.55997 | 34978 ft | 447 kts | 192° |
| 2026-05-08 03:55 | 41.44122 | 7.54595 | 34978 ft | 448 kts | 192° |
| 2026-05-08 03:56 | 41.37978 | 7.53174 | 34979 ft | 449 kts | 192° |
| 2026-05-08 03:56 | 41.31821 | 7.51758 | 34978 ft | 450 kts | 192° |
| 2026-05-08 03:57 | 41.25659 | 7.50345 | 34978 ft | 450 kts | 192° |
| 2026-05-08 03:57 | 41.19489 | 7.48936 | 34979 ft | 450 kts | 192° |
| 2026-05-08 03:58 | 41.13339 | 7.47533 | 34978 ft | 451 kts | 193° |
| 2026-05-08 03:58 | 41.07191 | 7.46133 | 34985 ft | 452 kts | 193° |
| 2026-05-08 03:59 | 41.00957 | 7.44716 | 34991 ft | 453 kts | 193° |
| 2026-05-08 03:59 | 40.94798 | 7.43319 | 34986 ft | 453 kts | 193° |
| 2026-05-08 04:00 | 40.88577 | 7.41911 | 34986 ft | 454 kts | 193° |
| 2026-05-08 04:00 | 40.82356 | 7.40507 | 34986 ft | 454 kts | 193° |
| 2026-05-08 04:01 | 40.76121 | 7.39100 | 34986 ft | 455 kts | 193° |
| 2026-05-08 04:01 | 40.69922 | 7.37706 | 34985 ft | 455 kts | 193° |
| 2026-05-08 04:02 | 40.63709 | 7.36309 | 34986 ft | 455 kts | 193° |
| 2026-05-08 04:02 | 40.57480 | 7.34913 | 34983 ft | 456 kts | 193° |
| 2026-05-08 04:03 | 40.51232 | 7.33516 | 34979 ft | 456 kts | 193° |
| 2026-05-08 04:03 | 40.41848 | 7.31421 | 34979 ft | 456 kts | 193° |
| 2026-05-08 04:04 | 40.35596 | 7.30028 | 34979 ft | 457 kts | 193° |
| 2026-05-08 04:04 | 40.29364 | 7.28643 | 34978 ft | 457 kts | 193° |
| 2026-05-08 04:05 | 40.23100 | 7.27253 | 34975 ft | 457 kts | 193° |
| 2026-05-08 04:05 | 40.16848 | 7.25871 | 34972 ft | 457 kts | 193° |
| 2026-05-08 04:06 | 40.10584 | 7.24487 | 34970 ft | 457 kts | 193° |
| 2026-05-08 04:06 | 40.04331 | 7.23108 | 34970 ft | 458 kts | 193° |
| 2026-05-08 04:07 | 39.98055 | 7.21728 | 34970 ft | 458 kts | 194° |
| 2026-05-08 04:07 | 39.91763 | 7.20357 | 34967 ft | 462 kts | 194° |
| 2026-05-08 04:08 | 39.85497 | 7.18978 | 34961 ft | 463 kts | 195° |
| 2026-05-08 04:08 | 39.79145 | 7.17591 | 34959 ft | 463 kts | 195° |
| 2026-05-08 04:09 | 39.72792 | 7.16206 | 34961 ft | 463 kts | 194° |
| 2026-05-08 04:09 | 39.66420 | 7.15020 | 34962 ft | 465 kts | 193° |
| 2026-05-08 04:10 | 39.60021 | 7.13895 | 34964 ft | 465 kts | 193° |
| 2026-05-08 04:10 | 39.53647 | 7.12768 | 34953 ft | 466 kts | 193° |
| 2026-05-08 04:11 | 39.47234 | 7.11629 | 34955 ft | 466 kts | 194° |
| 2026-05-08 04:11 | 39.40806 | 7.10486 | 34951 ft | 467 kts | 194° |
| 2026-05-08 04:12 | 39.34410 | 7.09351 | 34950 ft | 467 kts | 194° |
| 2026-05-08 04:12 | 39.27989 | 7.08213 | 34958 ft | 468 kts | 194° |
| 2026-05-08 04:13 | 39.21536 | 7.07071 | 34966 ft | 468 kts | 194° |
| 2026-05-08 04:13 | 39.15092 | 7.05936 | 34969 ft | 468 kts | 194° |
| 2026-05-08 04:14 | 39.08644 | 7.04804 | 34967 ft | 468 kts | 194° |
| 2026-05-08 04:14 | 39.02230 | 7.03676 | 34935 ft | 469 kts | 194° |
| 2026-05-08 04:15 | 38.95796 | 7.02572 | 34932 ft | 470 kts | 194° |
| 2026-05-08 04:15 | 38.89308 | 7.01512 | 34932 ft | 470 kts | 194° |
| 2026-05-08 04:16 | 38.82845 | 7.00465 | 34932 ft | 471 kts | 194° |
| 2026-05-08 04:16 | 38.76363 | 6.99415 | 34934 ft | 471 kts | 194° |
| 2026-05-08 04:17 | 38.69852 | 6.98362 | 34945 ft | 471 kts | 194° |
| 2026-05-08 04:17 | 38.63370 | 6.97316 | 34942 ft | 472 kts | 195° |
| 2026-05-08 04:18 | 38.56858 | 6.96265 | 34938 ft | 472 kts | 195° |
| 2026-05-08 04:18 | 38.50405 | 6.95228 | 34945 ft | 472 kts | 195° |
| 2026-05-08 04:19 | 38.43891 | 6.94182 | 34947 ft | 473 kts | 195° |
| 2026-05-08 04:19 | 38.37409 | 6.93144 | 34952 ft | 472 kts | 195° |
| 2026-05-08 04:20 | 38.30896 | 6.92102 | 34947 ft | 473 kts | 195° |
| 2026-05-08 04:20 | 38.24362 | 6.91058 | 34953 ft | 473 kts | 195° |
| 2026-05-08 04:21 | 38.17843 | 6.90019 | 34953 ft | 473 kts | 195° |
| 2026-05-08 04:21 | 38.11332 | 6.88983 | 34951 ft | 473 kts | 195° |
| 2026-05-08 04:22 | 38.04813 | 6.87948 | 34951 ft | 473 kts | 195° |
| 2026-05-08 04:22 | 37.98265 | 6.86908 | 34951 ft | 474 kts | 195° |
| 2026-05-08 04:23 | 37.91764 | 6.85881 | 34955 ft | 476 kts | 195° |
| 2026-05-08 04:23 | 37.85180 | 6.84839 | 34958 ft | 476 kts | 195° |
| 2026-05-08 04:24 | 37.78600 | 6.83802 | 34960 ft | 476 kts | 195° |
| 2026-05-08 04:24 | 37.72035 | 6.82769 | 34959 ft | 476 kts | 195° |
| 2026-05-08 04:25 | 37.65446 | 6.81734 | 34960 ft | 476 kts | 195° |
| 2026-05-08 04:25 | 37.58906 | 6.80707 | 34959 ft | 476 kts | 195° |
| 2026-05-08 04:26 | 37.52325 | 6.79678 | 34961 ft | 476 kts | 195° |
| 2026-05-08 04:26 | 37.45741 | 6.78648 | 34961 ft | 476 kts | 195° |
| 2026-05-08 04:27 | 37.39160 | 6.77621 | 34960 ft | 477 kts | 195° |
| 2026-05-08 04:27 | 37.32574 | 6.76596 | 34959 ft | 477 kts | 195° |
| 2026-05-08 04:28 | 37.26020 | 6.75577 | 34960 ft | 477 kts | 195° |
| 2026-05-08 04:28 | 37.19425 | 6.74554 | 34960 ft | 476 kts | 195° |
| 2026-05-08 04:29 | 37.12845 | 6.73536 | 34983 ft | 476 kts | 195° |
| 2026-05-08 04:29 | 37.06272 | 6.72521 | 34986 ft | 476 kts | 195° |
| 2026-05-08 04:30 | 36.99705 | 6.71506 | 34986 ft | 476 kts | 195° |
| 2026-05-08 04:30 | 36.93122 | 6.70492 | 34982 ft | 476 kts | 195° |
| 2026-05-08 04:31 | 36.86544 | 6.69483 | 34994 ft | 476 kts | 194° |
| 2026-05-08 04:31 | 36.80007 | 6.68483 | 35003 ft | 476 kts | 194° |
| 2026-05-08 04:32 | 36.73423 | 6.67476 | 35001 ft | 476 kts | 194° |
| 2026-05-08 04:32 | 36.66842 | 6.66473 | 34993 ft | 476 kts | 194° |
| 2026-05-08 04:33 | 36.60265 | 6.65471 | 34991 ft | 475 kts | 194° |
| 2026-05-08 04:33 | 36.53686 | 6.64469 | 35003 ft | 476 kts | 194° |
| 2026-05-08 04:34 | 36.47109 | 6.63471 | 35010 ft | 476 kts | 194° |
| 2026-05-08 04:34 | 36.40567 | 6.62482 | 35015 ft | 476 kts | 194° |
| 2026-05-08 04:35 | 36.33988 | 6.61489 | 35017 ft | 476 kts | 194° |
| 2026-05-08 04:35 | 36.27348 | 6.60890 | 35016 ft | 482 kts | 188° |
| 2026-05-08 04:36 | 36.21743 | 6.60981 | 35019 ft | 485 kts | 185° |
| 2026-05-08 04:36 | 36.15006 | 6.61187 | 35013 ft | 485 kts | 185° |
| 2026-05-08 04:37 | 36.08262 | 6.61390 | 35010 ft | 484 kts | 185° |
| 2026-05-08 04:37 | 36.01519 | 6.61592 | 35019 ft | 484 kts | 185° |
| 2026-05-08 04:38 | 35.94777 | 6.61787 | 35019 ft | 483 kts | 185° |
| 2026-05-08 04:38 | 35.88049 | 6.61989 | 35012 ft | 483 kts | 185° |
| 2026-05-08 04:39 | 35.81318 | 6.62190 | 35015 ft | 483 kts | 185° |
| 2026-05-08 04:39 | 35.74645 | 6.62387 | 35019 ft | 483 kts | 185° |
| 2026-05-08 04:40 | 35.67929 | 6.62586 | 35014 ft | 483 kts | 185° |
| 2026-05-08 04:40 | 35.61213 | 6.62786 | 35015 ft | 482 kts | 185° |
| 2026-05-08 04:41 | 35.54500 | 6.62982 | 35016 ft | 482 kts | 185° |
| 2026-05-08 04:41 | 35.47800 | 6.63179 | 35011 ft | 482 kts | 185° |
| 2026-05-08 04:42 | 35.41084 | 6.63377 | 35008 ft | 481 kts | 185° |
| 2026-05-08 04:42 | 35.34395 | 6.63573 | 35001 ft | 481 kts | 185° |
| 2026-05-08 04:43 | 35.27702 | 6.63769 | 35005 ft | 480 kts | 185° |
| 2026-05-08 04:43 | 35.21055 | 6.63964 | 34987 ft | 480 kts | 185° |
| 2026-05-08 04:44 | 35.14376 | 6.64159 | 34985 ft | 480 kts | 184° |
| 2026-05-08 04:44 | 35.07695 | 6.64356 | 34982 ft | 479 kts | 184° |
| 2026-05-08 04:45 | 35.01031 | 6.64552 | 34974 ft | 479 kts | 184° |
| 2026-05-08 04:45 | 34.94355 | 6.64748 | 34969 ft | 479 kts | 184° |
| 2026-05-08 04:46 | 34.87730 | 6.64943 | 34966 ft | 480 kts | 184° |
| 2026-05-08 04:46 | 34.81014 | 6.65144 | 34958 ft | 478 kts | 184° |
| 2026-05-08 04:47 | 34.74396 | 6.65330 | 34958 ft | 478 kts | 184° |
| 2026-05-08 04:47 | 34.67744 | 6.65520 | 34950 ft | 478 kts | 184° |
| 2026-05-08 04:48 | 34.61103 | 6.65716 | 34919 ft | 477 kts | 184° |
| 2026-05-08 04:48 | 34.54503 | 6.65912 | 34915 ft | 477 kts | 184° |
| 2026-05-08 04:49 | 34.47853 | 6.66111 | 34908 ft | 477 kts | 184° |
| 2026-05-08 04:49 | 34.41208 | 6.66309 | 34905 ft | 477 kts | 184° |
| 2026-05-08 04:50 | 34.34567 | 6.66509 | 34905 ft | 477 kts | 184° |
| 2026-05-08 04:50 | 34.27927 | 6.66707 | 34904 ft | 477 kts | 184° |
| 2026-05-08 04:51 | 34.21333 | 6.66903 | 34904 ft | 476 kts | 184° |
| 2026-05-08 04:51 | 34.14704 | 6.67100 | 34904 ft | 476 kts | 184° |
| 2026-05-08 04:52 | 34.08077 | 6.67298 | 34897 ft | 476 kts | 184° |
| 2026-05-08 04:52 | 34.01447 | 6.67494 | 34896 ft | 476 kts | 184° |
| 2026-05-08 04:53 | 33.94809 | 6.67689 | 34896 ft | 475 kts | 183° |
| 2026-05-08 04:53 | 33.88213 | 6.67886 | 34892 ft | 473 kts | 184° |
| 2026-05-08 04:54 | 33.81641 | 6.68081 | 34887 ft | 472 kts | 184° |
| 2026-05-08 04:54 | 33.75065 | 6.68274 | 34886 ft | 472 kts | 184° |
| 2026-05-08 04:55 | 33.68486 | 6.68467 | 34886 ft | 472 kts | 184° |
| 2026-05-08 04:55 | 33.61916 | 6.68660 | 34886 ft | 472 kts | 184° |
| 2026-05-08 04:56 | 33.55393 | 6.68853 | 34886 ft | 472 kts | 184° |
| 2026-05-08 04:56 | 33.48836 | 6.69044 | 34886 ft | 471 kts | 184° |
| 2026-05-08 04:57 | 33.42282 | 6.69236 | 34892 ft | 471 kts | 184° |
| 2026-05-08 04:57 | 33.35733 | 6.69427 | 34895 ft | 470 kts | 184° |
| 2026-05-08 04:58 | 33.29194 | 6.69618 | 34895 ft | 470 kts | 184° |
| 2026-05-08 04:58 | 33.22654 | 6.69807 | 34895 ft | 469 kts | 184° |
| 2026-05-08 04:59 | 33.16120 | 6.69998 | 34894 ft | 469 kts | 184° |
| 2026-05-08 04:59 | 33.09637 | 6.70186 | 34895 ft | 468 kts | 184° |
| 2026-05-08 05:00 | 33.03132 | 6.70374 | 34903 ft | 468 kts | 184° |
| 2026-05-08 05:00 | 32.96601 | 6.70563 | 34904 ft | 468 kts | 184° |
| 2026-05-08 05:01 | 32.90094 | 6.70751 | 34904 ft | 467 kts | 184° |
| 2026-05-08 05:01 | 32.83591 | 6.70938 | 34904 ft | 467 kts | 184° |
| 2026-05-08 05:02 | 32.77093 | 6.71125 | 34905 ft | 467 kts | 184° |
| 2026-05-08 05:02 | 32.70625 | 6.71311 | 34903 ft | 467 kts | 184° |
| 2026-05-08 05:03 | 32.64127 | 6.71498 | 34904 ft | 467 kts | 184° |
| 2026-05-08 05:03 | 32.57621 | 6.71684 | 34903 ft | 467 kts | 184° |
| 2026-05-08 05:04 | 32.51128 | 6.71870 | 34897 ft | 467 kts | 184° |
| 2026-05-08 05:04 | 32.44629 | 6.72056 | 34895 ft | 467 kts | 184° |
| 2026-05-08 05:05 | 32.38139 | 6.72241 | 34895 ft | 467 kts | 184° |
| 2026-05-08 05:05 | 32.31648 | 6.72426 | 34895 ft | 467 kts | 184° |
| 2026-05-08 05:06 | 32.25143 | 6.72612 | 34895 ft | 467 kts | 184° |
| 2026-05-08 05:06 | 32.18683 | 6.72796 | 34894 ft | 467 kts | 184° |
| 2026-05-08 05:07 | 32.12165 | 6.72980 | 34890 ft | 468 kts | 184° |
| 2026-05-08 05:07 | 32.05653 | 6.73165 | 34887 ft | 468 kts | 184° |
| 2026-05-08 05:08 | 31.99130 | 6.73349 | 34886 ft | 467 kts | 184° |
| 2026-05-08 05:08 | 31.92645 | 6.73539 | 34887 ft | 464 kts | 184° |
| 2026-05-08 05:09 | 31.86248 | 6.73719 | 34886 ft | 462 kts | 184° |
| 2026-05-08 05:09 | 31.79809 | 6.73898 | 34886 ft | 462 kts | 184° |
| 2026-05-08 05:10 | 31.70179 | 6.74168 | 34876 ft | 461 kts | 185° |
| 2026-05-08 05:11 | 31.63762 | 6.74349 | 34886 ft | 460 kts | 185° |
| 2026-05-08 05:11 | 31.57362 | 6.74528 | 34886 ft | 459 kts | 185° |
| 2026-05-08 05:12 | 31.50970 | 6.74707 | 34886 ft | 459 kts | 185° |
| 2026-05-08 05:12 | 31.44584 | 6.74886 | 34886 ft | 459 kts | 185° |
| 2026-05-08 05:13 | 31.38207 | 6.75064 | 34886 ft | 458 kts | 185° |
| 2026-05-08 05:13 | 31.31835 | 6.75242 | 34887 ft | 457 kts | 185° |
| 2026-05-08 05:14 | 31.25491 | 6.75420 | 34886 ft | 456 kts | 185° |
| 2026-05-08 05:14 | 31.19157 | 6.75596 | 34886 ft | 455 kts | 185° |
| 2026-05-08 05:15 | 31.12878 | 6.75771 | 34886 ft | 454 kts | 185° |
| 2026-05-08 05:15 | 31.06565 | 6.75946 | 34886 ft | 453 kts | 185° |
| 2026-05-08 05:16 | 31.00262 | 6.76120 | 34886 ft | 453 kts | 185° |
| 2026-05-08 05:16 | 30.93962 | 6.76294 | 34886 ft | 452 kts | 185° |
| 2026-05-08 05:17 | 30.87687 | 6.76468 | 34904 ft | 451 kts | 185° |
| 2026-05-08 05:17 | 30.81418 | 6.76641 | 34912 ft | 450 kts | 186° |
| 2026-05-08 05:18 | 30.75169 | 6.76813 | 34914 ft | 449 kts | 186° |
| 2026-05-08 05:18 | 30.68933 | 6.76985 | 34914 ft | 448 kts | 186° |
| 2026-05-08 05:19 | 30.62715 | 6.77156 | 34914 ft | 447 kts | 186° |
| 2026-05-08 05:19 | 30.56497 | 6.77327 | 34913 ft | 446 kts | 186° |
| 2026-05-08 05:20 | 30.50288 | 6.77496 | 34914 ft | 446 kts | 186° |
| 2026-05-08 05:20 | 30.44128 | 6.77665 | 34914 ft | 445 kts | 186° |
| 2026-05-08 05:21 | 30.37931 | 6.77834 | 34914 ft | 445 kts | 186° |
| 2026-05-08 05:21 | 30.31733 | 6.78004 | 34914 ft | 445 kts | 186° |
| 2026-05-08 05:22 | 30.25549 | 6.78172 | 34914 ft | 445 kts | 186° |
| 2026-05-08 05:22 | 30.19359 | 6.78341 | 34919 ft | 444 kts | 186° |
| 2026-05-08 05:23 | 30.14225 | 6.78481 | 34922 ft | 444 kts | 186° |
| 2026-05-08 05:23 | 30.08045 | 6.78648 | 34923 ft | 443 kts | 186° |
| 2026-05-08 05:24 | 30.00869 | 6.78843 | 34923 ft | 443 kts | 186° |
| 2026-05-08 05:24 | 29.95704 | 6.78987 | 34922 ft | 442 kts | 186° |
| 2026-05-08 05:25 | 29.89560 | 6.79153 | 34923 ft | 441 kts | 186° |
| 2026-05-08 05:25 | 29.83459 | 6.79317 | 34923 ft | 441 kts | 186° |
| 2026-05-08 05:26 | 29.77312 | 6.79482 | 34923 ft | 442 kts | 186° |
| 2026-05-08 05:26 | 29.71157 | 6.79647 | 34921 ft | 442 kts | 186° |
| 2026-05-08 05:27 | 29.64998 | 6.79813 | 34923 ft | 442 kts | 186° |
| 2026-05-08 05:27 | 29.58849 | 6.79979 | 34928 ft | 442 kts | 186° |
| 2026-05-08 05:28 | 29.52696 | 6.80142 | 34932 ft | 442 kts | 186° |
| 2026-05-08 05:28 | 29.46539 | 6.80305 | 34931 ft | 443 kts | 186° |
| 2026-05-08 05:29 | 29.40369 | 6.80469 | 34942 ft | 443 kts | 186° |
| 2026-05-08 05:29 | 29.34236 | 6.80632 | 34939 ft | 443 kts | 186° |
| 2026-05-08 05:30 | 29.28060 | 6.80797 | 34941 ft | 444 kts | 186° |
| 2026-05-08 05:30 | 29.21871 | 6.80963 | 34943 ft | 445 kts | 187° |
| 2026-05-08 05:31 | 29.15715 | 6.81127 | 34940 ft | 444 kts | 187° |
| 2026-05-08 05:31 | 29.09524 | 6.81294 | 34945 ft | 444 kts | 187° |
| 2026-05-08 05:32 | 29.03337 | 6.81459 | 34938 ft | 445 kts | 187° |
| 2026-05-08 05:32 | 28.97149 | 6.81623 | 34939 ft | 445 kts | 187° |
| 2026-05-08 05:33 | 28.90950 | 6.81787 | 34945 ft | 445 kts | 187° |
| 2026-05-08 05:33 | 28.84753 | 6.81952 | 34952 ft | 445 kts | 187° |
| 2026-05-08 05:34 | 28.78589 | 6.82117 | 34952 ft | 446 kts | 187° |
| 2026-05-08 05:34 | 28.72384 | 6.82281 | 34955 ft | 446 kts | 187° |
| 2026-05-08 05:35 | 28.66175 | 6.82450 | 34956 ft | 446 kts | 187° |
| 2026-05-08 05:35 | 28.59972 | 6.82617 | 34957 ft | 446 kts | 187° |
| 2026-05-08 05:36 | 28.53765 | 6.82783 | 34962 ft | 447 kts | 187° |
| 2026-05-08 05:36 | 28.47535 | 6.82949 | 34961 ft | 447 kts | 187° |
| 2026-05-08 05:37 | 28.41311 | 6.83115 | 34956 ft | 447 kts | 187° |
| 2026-05-08 05:37 | 28.35095 | 6.83281 | 34967 ft | 447 kts | 187° |
| 2026-05-08 05:38 | 28.28921 | 6.83447 | 34966 ft | 447 kts | 187° |
| 2026-05-08 05:38 | 28.22698 | 6.83616 | 34966 ft | 447 kts | 187° |
| 2026-05-08 05:39 | 28.16472 | 6.83782 | 34969 ft | 447 kts | 187° |
| 2026-05-08 05:39 | 28.10211 | 6.84207 | 34969 ft | 453 kts | 183° |
| 2026-05-08 05:40 | 28.03938 | 6.84893 | 34974 ft | 452 kts | 183° |
| 2026-05-08 05:40 | 27.97667 | 6.85580 | 34976 ft | 452 kts | 183° |
| 2026-05-08 05:41 | 27.91376 | 6.86273 | 34981 ft | 455 kts | 183° |
| 2026-05-08 05:41 | 27.85060 | 6.86970 | 34985 ft | 456 kts | 183° |
| 2026-05-08 05:42 | 27.78775 | 6.87663 | 34999 ft | 456 kts | 183° |
| 2026-05-08 05:42 | 27.72458 | 6.88361 | 34987 ft | 456 kts | 183° |
| 2026-05-08 05:43 | 27.66143 | 6.89058 | 34985 ft | 456 kts | 183° |
| 2026-05-08 05:43 | 27.59809 | 6.89755 | 34989 ft | 457 kts | 183° |
| 2026-05-08 05:44 | 27.53483 | 6.90451 | 34986 ft | 457 kts | 183° |
| 2026-05-08 05:44 | 27.47196 | 6.91141 | 34984 ft | 457 kts | 183° |
| 2026-05-08 05:45 | 27.40860 | 6.91837 | 34984 ft | 457 kts | 183° |
| 2026-05-08 05:45 | 27.34530 | 6.92530 | 34991 ft | 457 kts | 183° |
| 2026-05-08 05:46 | 27.28203 | 6.93222 | 35008 ft | 457 kts | 183° |
| 2026-05-08 05:46 | 27.21858 | 6.93916 | 35007 ft | 458 kts | 183° |
| 2026-05-08 05:47 | 27.15493 | 6.94612 | 35011 ft | 458 kts | 183° |
| 2026-05-08 05:47 | 27.09141 | 6.95305 | 35014 ft | 458 kts | 183° |
| 2026-05-08 05:48 | 27.02791 | 6.95997 | 35012 ft | 458 kts | 183° |
| 2026-05-08 05:48 | 26.96424 | 6.96691 | 35022 ft | 459 kts | 184° |
| 2026-05-08 05:49 | 26.90098 | 6.97379 | 35021 ft | 460 kts | 184° |
| 2026-05-08 05:49 | 26.83731 | 6.98070 | 35012 ft | 459 kts | 183° |
| 2026-05-08 05:50 | 26.77357 | 6.98763 | 35015 ft | 460 kts | 183° |
| 2026-05-08 05:50 | 26.70987 | 6.99454 | 35012 ft | 460 kts | 183° |
| 2026-05-08 05:51 | 26.64593 | 7.00153 | 35021 ft | 460 kts | 184° |
| 2026-05-08 05:51 | 26.58235 | 7.00833 | 35006 ft | 461 kts | 184° |
| 2026-05-08 05:52 | 26.51853 | 7.01520 | 35009 ft | 461 kts | 183° |
| 2026-05-08 05:52 | 26.45460 | 7.02218 | 35023 ft | 462 kts | 184° |
| 2026-05-08 05:53 | 26.39058 | 7.02913 | 35020 ft | 461 kts | 184° |
| 2026-05-08 05:53 | 26.32673 | 7.03603 | 35025 ft | 461 kts | 184° |
| 2026-05-08 05:54 | 26.26268 | 7.04293 | 35022 ft | 462 kts | 184° |
| 2026-05-08 05:54 | 26.19859 | 7.04983 | 35022 ft | 462 kts | 184° |
| 2026-05-08 05:55 | 26.13491 | 7.05669 | 35025 ft | 462 kts | 184° |
| 2026-05-08 05:55 | 26.07068 | 7.06361 | 35020 ft | 463 kts | 184° |
| 2026-05-08 05:56 | 26.00642 | 7.07052 | 35030 ft | 465 kts | 184° |
| 2026-05-08 05:56 | 25.94190 | 7.07746 | 35016 ft | 466 kts | 184° |
| 2026-05-08 05:57 | 25.87724 | 7.08448 | 35034 ft | 466 kts | 184° |
| 2026-05-08 05:57 | 25.81251 | 7.09146 | 35029 ft | 467 kts | 184° |
| 2026-05-08 05:58 | 25.74819 | 7.09847 | 35036 ft | 467 kts | 184° |
| 2026-05-08 05:58 | 25.68345 | 7.10552 | 35034 ft | 467 kts | 184° |
| 2026-05-08 05:59 | 25.61871 | 7.11256 | 35033 ft | 468 kts | 184° |
| 2026-05-08 05:59 | 25.55388 | 7.11960 | 35032 ft | 468 kts | 184° |
| 2026-05-08 06:00 | 25.48885 | 7.12665 | 35034 ft | 468 kts | 184° |
| 2026-05-08 06:00 | 25.42401 | 7.13367 | 35034 ft | 468 kts | 184° |
| 2026-05-08 06:01 | 25.35912 | 7.14070 | 35037 ft | 469 kts | 184° |
| 2026-05-08 06:01 | 25.29407 | 7.14773 | 35040 ft | 470 kts | 184° |
| 2026-05-08 06:02 | 25.22896 | 7.15477 | 35042 ft | 470 kts | 184° |
| 2026-05-08 06:02 | 25.16424 | 7.16178 | 35041 ft | 472 kts | 184° |
| 2026-05-08 06:03 | 25.09865 | 7.16885 | 35041 ft | 474 kts | 184° |
| 2026-05-08 06:03 | 25.03300 | 7.17596 | 35043 ft | 474 kts | 184° |
| 2026-05-08 06:04 | 24.96723 | 7.18307 | 35045 ft | 474 kts | 184° |
| 2026-05-08 06:04 | 24.90147 | 7.19007 | 35051 ft | 475 kts | 184° |
| 2026-05-08 06:05 | 24.83557 | 7.19708 | 35051 ft | 476 kts | 184° |
| 2026-05-08 06:05 | 24.76966 | 7.20412 | 35052 ft | 476 kts | 184° |
| 2026-05-08 06:06 | 24.70370 | 7.21120 | 35052 ft | 476 kts | 184° |
| 2026-05-08 06:06 | 24.63773 | 7.21828 | 35051 ft | 476 kts | 184° |
| 2026-05-08 06:07 | 24.57181 | 7.22535 | 35058 ft | 476 kts | 184° |
| 2026-05-08 06:07 | 24.50578 | 7.23242 | 35060 ft | 477 kts | 184° |
| 2026-05-08 06:08 | 24.45079 | 7.23830 | 35059 ft | 477 kts | 184° |
| 2026-05-08 06:08 | 24.38463 | 7.24536 | 35059 ft | 478 kts | 184° |
| 2026-05-08 06:09 | 24.30777 | 7.25357 | 35062 ft | 478 kts | 184° |
| 2026-05-08 06:09 | 24.25235 | 7.25949 | 35065 ft | 477 kts | 184° |
| 2026-05-08 06:10 | 24.18613 | 7.26655 | 35070 ft | 478 kts | 184° |
| 2026-05-08 06:10 | 24.12037 | 7.27355 | 35084 ft | 478 kts | 184° |
| 2026-05-08 06:11 | 24.05421 | 7.28058 | 35084 ft | 478 kts | 184° |
| 2026-05-08 06:11 | 23.98765 | 7.28765 | 35082 ft | 479 kts | 184° |
| 2026-05-08 06:12 | 23.92112 | 7.29467 | 35080 ft | 481 kts | 183° |
| 2026-05-08 06:12 | 23.85451 | 7.30175 | 35080 ft | 481 kts | 183° |
| 2026-05-08 06:13 | 23.78775 | 7.30885 | 35079 ft | 481 kts | 183° |
| 2026-05-08 06:13 | 23.72153 | 7.31589 | 35076 ft | 481 kts | 183° |
| 2026-05-08 06:14 | 23.65469 | 7.32297 | 35081 ft | 482 kts | 183° |
| 2026-05-08 06:14 | 23.58781 | 7.33007 | 35083 ft | 483 kts | 183° |
| 2026-05-08 06:15 | 23.52102 | 7.33714 | 35080 ft | 483 kts | 183° |
| 2026-05-08 06:15 | 23.45398 | 7.34625 | 35087 ft | 485 kts | 181° |
| 2026-05-08 06:16 | 23.38692 | 7.35586 | 35096 ft | 485 kts | 181° |
| 2026-05-08 06:16 | 23.32038 | 7.36545 | 35096 ft | 485 kts | 181° |
| 2026-05-08 06:17 | 23.21982 | 7.37993 | 35079 ft | 487 kts | 181° |
| 2026-05-08 06:17 | 23.15264 | 7.38961 | 35087 ft | 487 kts | 181° |
| 2026-05-08 06:18 | 23.08541 | 7.39928 | 35085 ft | 487 kts | 181° |
| 2026-05-08 06:18 | 23.01802 | 7.40896 | 35098 ft | 488 kts | 181° |
| 2026-05-08 06:19 | 22.95050 | 7.41866 | 35097 ft | 488 kts | 180° |
| 2026-05-08 06:19 | 22.88355 | 7.42826 | 35098 ft | 489 kts | 180° |
| 2026-05-08 06:20 | 22.81586 | 7.43797 | 35097 ft | 490 kts | 180° |
| 2026-05-08 06:20 | 22.74835 | 7.44761 | 35086 ft | 490 kts | 180° |
| 2026-05-08 06:21 | 22.68062 | 7.45731 | 35080 ft | 491 kts | 180° |
| 2026-05-08 06:21 | 22.61333 | 7.46691 | 35095 ft | 491 kts | 180° |
| 2026-05-08 06:22 | 22.54506 | 7.47667 | 35095 ft | 492 kts | 180° |
| 2026-05-08 06:22 | 22.47760 | 7.48629 | 35081 ft | 492 kts | 180° |
| 2026-05-08 06:23 | 22.40968 | 7.49597 | 35081 ft | 492 kts | 180° |
| 2026-05-08 06:23 | 22.34165 | 7.50564 | 35091 ft | 493 kts | 180° |
| 2026-05-08 06:24 | 22.27358 | 7.51533 | 35093 ft | 493 kts | 180° |
| 2026-05-08 06:24 | 22.20590 | 7.52494 | 35089 ft | 493 kts | 180° |
| 2026-05-08 06:25 | 22.13777 | 7.53461 | 35092 ft | 494 kts | 180° |
| 2026-05-08 06:25 | 22.06954 | 7.54427 | 35092 ft | 494 kts | 180° |
| 2026-05-08 06:26 | 22.00122 | 7.55396 | 35094 ft | 494 kts | 180° |
| 2026-05-08 06:26 | 21.93289 | 7.56360 | 35083 ft | 495 kts | 179° |
| 2026-05-08 06:27 | 21.86449 | 7.57329 | 35078 ft | 496 kts | 179° |
| 2026-05-08 06:27 | 21.79651 | 7.58290 | 35085 ft | 496 kts | 179° |
| 2026-05-08 06:28 | 21.72804 | 7.59257 | 35083 ft | 496 kts | 179° |
| 2026-05-08 06:28 | 21.65960 | 7.60222 | 35081 ft | 496 kts | 179° |
| 2026-05-08 06:29 | 21.59110 | 7.61186 | 35083 ft | 496 kts | 179° |
| 2026-05-08 06:29 | 21.52271 | 7.62149 | 35075 ft | 495 kts | 179° |
| 2026-05-08 06:30 | 21.45421 | 7.63111 | 35076 ft | 496 kts | 179° |
| 2026-05-08 06:30 | 21.38581 | 7.64073 | 35067 ft | 496 kts | 179° |
| 2026-05-08 06:31 | 21.31782 | 7.65028 | 35068 ft | 496 kts | 179° |
| 2026-05-08 06:31 | 21.24937 | 7.65987 | 35071 ft | 496 kts | 179° |
| 2026-05-08 06:32 | 21.18083 | 7.66948 | 35067 ft | 497 kts | 179° |
| 2026-05-08 06:32 | 21.11219 | 7.67912 | 35058 ft | 497 kts | 179° |
| 2026-05-08 06:33 | 21.04400 | 7.68871 | 35065 ft | 498 kts | 179° |
| 2026-05-08 06:33 | 20.97513 | 7.69827 | 35057 ft | 497 kts | 180° |
| 2026-05-08 06:34 | 20.90643 | 7.70436 | 35054 ft | 495 kts | 182° |
| 2026-05-08 06:34 | 20.83755 | 7.70981 | 35052 ft | 496 kts | 182° |
| 2026-05-08 06:35 | 20.76867 | 7.71533 | 35046 ft | 496 kts | 182° |
| 2026-05-08 06:35 | 20.69966 | 7.72087 | 35044 ft | 497 kts | 182° |
| 2026-05-08 06:36 | 20.63057 | 7.72644 | 35044 ft | 497 kts | 182° |
| 2026-05-08 06:36 | 20.56200 | 7.73195 | 35039 ft | 498 kts | 181° |
| 2026-05-08 06:37 | 20.49279 | 7.73753 | 35037 ft | 498 kts | 181° |
| 2026-05-08 06:37 | 20.42361 | 7.74308 | 35035 ft | 498 kts | 181° |
| 2026-05-08 06:38 | 20.35434 | 7.74865 | 35027 ft | 499 kts | 181° |
| 2026-05-08 06:38 | 20.28548 | 7.75418 | 35023 ft | 499 kts | 181° |
| 2026-05-08 06:39 | 20.21612 | 7.75975 | 35021 ft | 499 kts | 181° |
| 2026-05-08 06:39 | 20.14684 | 7.76528 | 35015 ft | 499 kts | 181° |
| 2026-05-08 06:40 | 20.07744 | 7.77084 | 35013 ft | 500 kts | 181° |
| 2026-05-08 06:40 | 20.00855 | 7.77636 | 35006 ft | 500 kts | 181° |
| 2026-05-08 06:41 | 19.93922 | 7.78191 | 35009 ft | 500 kts | 181° |
| 2026-05-08 06:41 | 19.86979 | 7.78746 | 35008 ft | 500 kts | 181° |
| 2026-05-08 06:42 | 19.80039 | 7.79300 | 35001 ft | 500 kts | 181° |
| 2026-05-08 06:42 | 19.73095 | 7.79854 | 35004 ft | 500 kts | 181° |
| 2026-05-08 06:43 | 19.66204 | 7.80406 | 34988 ft | 500 kts | 181° |
| 2026-05-08 06:43 | 19.59266 | 7.80962 | 34987 ft | 500 kts | 181° |
| 2026-05-08 06:44 | 19.52319 | 7.81517 | 34986 ft | 500 kts | 181° |
| 2026-05-08 06:44 | 19.45352 | 7.82075 | 34979 ft | 500 kts | 181° |
| 2026-05-08 06:45 | 19.38398 | 7.82641 | 34980 ft | 500 kts | 181° |
| 2026-05-08 06:45 | 19.31453 | 7.83212 | 34972 ft | 501 kts | 181° |
| 2026-05-08 06:46 | 19.24507 | 7.83784 | 34971 ft | 501 kts | 181° |
| 2026-05-08 06:46 | 19.17600 | 7.84353 | 34969 ft | 501 kts | 180° |
| 2026-05-08 06:47 | 19.10649 | 7.84925 | 34966 ft | 501 kts | 180° |
| 2026-05-08 06:47 | 19.03684 | 7.85498 | 34966 ft | 502 kts | 180° |
| 2026-05-08 06:48 | 18.96693 | 7.86073 | 34957 ft | 502 kts | 180° |
| 2026-05-08 06:48 | 18.89722 | 7.86645 | 34964 ft | 502 kts | 180° |
| 2026-05-08 06:49 | 18.82748 | 7.87217 | 34949 ft | 503 kts | 180° |
| 2026-05-08 06:49 | 18.75810 | 7.87786 | 34949 ft | 503 kts | 180° |
| 2026-05-08 06:50 | 18.68825 | 7.88359 | 34950 ft | 504 kts | 180° |
| 2026-05-08 06:50 | 18.61831 | 7.88931 | 34942 ft | 504 kts | 180° |
| 2026-05-08 06:51 | 18.54821 | 7.89505 | 34941 ft | 504 kts | 180° |
| 2026-05-08 06:51 | 18.47852 | 7.90075 | 34937 ft | 505 kts | 180° |
| 2026-05-08 06:52 | 18.40844 | 7.90647 | 34932 ft | 505 kts | 179° |
| 2026-05-08 06:52 | 18.33826 | 7.91220 | 34931 ft | 505 kts | 179° |
| 2026-05-08 06:53 | 18.26801 | 7.91793 | 34932 ft | 506 kts | 179° |
| 2026-05-08 06:53 | 18.19785 | 7.92364 | 34932 ft | 506 kts | 179° |
| 2026-05-08 06:54 | 18.12756 | 7.92937 | 34924 ft | 506 kts | 179° |
| 2026-05-08 06:54 | 18.05727 | 7.93509 | 34923 ft | 506 kts | 179° |
| 2026-05-08 06:55 | 17.98734 | 7.94078 | 34923 ft | 506 kts | 179° |
| 2026-05-08 06:55 | 17.91701 | 7.94650 | 34923 ft | 506 kts | 179° |
| 2026-05-08 06:56 | 17.84677 | 7.95220 | 34923 ft | 506 kts | 179° |
| 2026-05-08 06:56 | 17.77648 | 7.95790 | 34914 ft | 506 kts | 179° |
| 2026-05-08 06:57 | 17.70625 | 7.96359 | 34913 ft | 506 kts | 179° |
| 2026-05-08 06:57 | 17.64775 | 7.96833 | 34914 ft | 506 kts | 179° |
| 2026-05-08 06:58 | 17.57759 | 7.97401 | 34913 ft | 506 kts | 179° |
| 2026-05-08 06:58 | 17.50732 | 7.97968 | 34914 ft | 506 kts | 179° |
| 2026-05-08 06:59 | 17.43702 | 7.98537 | 34913 ft | 506 kts | 179° |
| 2026-05-08 06:59 | 17.36678 | 7.99104 | 34913 ft | 506 kts | 179° |
| 2026-05-08 07:00 | 17.29661 | 7.99672 | 34913 ft | 506 kts | 179° |
| 2026-05-08 07:00 | 17.22606 | 8.00242 | 34913 ft | 507 kts | 179° |
| 2026-05-08 07:01 | 17.15557 | 8.00812 | 34913 ft | 508 kts | 179° |
| 2026-05-08 07:01 | 17.08507 | 8.01384 | 34914 ft | 509 kts | 179° |
| 2026-05-08 07:02 | 17.01481 | 8.01955 | 34913 ft | 509 kts | 179° |
| 2026-05-08 07:02 | 16.94405 | 8.02547 | 34914 ft | 510 kts | 178° |
| 2026-05-08 07:03 | 16.87329 | 8.03222 | 34914 ft | 510 kts | 178° |
| 2026-05-08 07:03 | 16.80253 | 8.03910 | 34914 ft | 509 kts | 178° |
| 2026-05-08 07:04 | 16.73194 | 8.04594 | 34913 ft | 510 kts | 178° |
| 2026-05-08 07:04 | 16.66131 | 8.05275 | 34914 ft | 510 kts | 178° |
| 2026-05-08 07:05 | 16.59099 | 8.05952 | 34913 ft | 510 kts | 178° |
| 2026-05-08 07:05 | 16.52016 | 8.06633 | 34914 ft | 510 kts | 178° |
| 2026-05-08 07:06 | 16.44942 | 8.07312 | 34914 ft | 510 kts | 178° |
| 2026-05-08 07:06 | 16.37858 | 8.07992 | 34914 ft | 510 kts | 178° |
| 2026-05-08 07:07 | 16.30824 | 8.08668 | 34914 ft | 511 kts | 178° |
| 2026-05-08 07:07 | 16.23734 | 8.09348 | 34913 ft | 510 kts | 178° |
| 2026-05-08 07:08 | 16.16655 | 8.10026 | 34914 ft | 511 kts | 178° |
| 2026-05-08 07:08 | 16.09578 | 8.10703 | 34914 ft | 511 kts | 178° |
| 2026-05-08 07:09 | 16.02495 | 8.11381 | 34914 ft | 511 kts | 178° |
| 2026-05-08 07:09 | 15.95408 | 8.12058 | 34914 ft | 511 kts | 178° |
| 2026-05-08 07:10 | 15.88326 | 8.12735 | 34914 ft | 511 kts | 178° |
| 2026-05-08 07:10 | 15.81290 | 8.13407 | 34913 ft | 511 kts | 178° |
| 2026-05-08 07:11 | 15.74210 | 8.14082 | 34914 ft | 511 kts | 178° |
| 2026-05-08 07:11 | 15.67125 | 8.14758 | 34914 ft | 511 kts | 178° |
| 2026-05-08 07:12 | 15.60043 | 8.15432 | 34914 ft | 510 kts | 178° |
| 2026-05-08 07:12 | 15.52995 | 8.16104 | 34914 ft | 510 kts | 178° |
| 2026-05-08 07:13 | 15.45912 | 8.16779 | 34914 ft | 510 kts | 178° |
| 2026-05-08 07:13 | 15.38833 | 8.17452 | 34914 ft | 511 kts | 177° |
| 2026-05-08 07:14 | 15.31745 | 8.18127 | 34913 ft | 510 kts | 177° |
| 2026-05-08 07:14 | 15.24719 | 8.18797 | 34914 ft | 511 kts | 177° |
| 2026-05-08 07:15 | 15.17640 | 8.19472 | 34914 ft | 510 kts | 177° |
| 2026-05-08 07:15 | 15.10559 | 8.20150 | 34913 ft | 510 kts | 177° |
| 2026-05-08 07:16 | 15.03484 | 8.20817 | 34914 ft | 510 kts | 177° |
| 2026-05-08 07:16 | 14.96392 | 8.21481 | 34914 ft | 510 kts | 177° |
| 2026-05-08 07:17 | 14.89315 | 8.22147 | 34944 ft | 510 kts | 177° |
| 2026-05-08 07:17 | 14.82299 | 8.22812 | 34951 ft | 510 kts | 177° |
| 2026-05-08 07:18 | 14.75252 | 8.23481 | 34951 ft | 509 kts | 177° |
| 2026-05-08 07:18 | 14.68196 | 8.24150 | 34960 ft | 509 kts | 177° |
| 2026-05-08 07:19 | 14.61132 | 8.24820 | 34963 ft | 509 kts | 177° |
| 2026-05-08 07:19 | 14.54085 | 8.25487 | 34960 ft | 508 kts | 177° |
| 2026-05-08 07:20 | 14.47031 | 8.26156 | 34958 ft | 508 kts | 177° |
| 2026-05-08 07:20 | 14.40023 | 8.26818 | 34959 ft | 508 kts | 176° |
| 2026-05-08 07:21 | 14.32995 | 8.27484 | 34961 ft | 508 kts | 176° |
| 2026-05-08 07:21 | 14.25953 | 8.28150 | 34960 ft | 508 kts | 176° |
| 2026-05-08 07:22 | 14.18917 | 8.28815 | 34958 ft | 508 kts | 176° |
| 2026-05-08 07:22 | 14.11883 | 8.29479 | 34960 ft | 508 kts | 176° |
| 2026-05-08 07:23 | 14.04846 | 8.30144 | 34961 ft | 507 kts | 176° |
| 2026-05-08 07:23 | 13.97819 | 8.30808 | 34958 ft | 507 kts | 176° |
| 2026-05-08 07:24 | 13.90788 | 8.31473 | 34961 ft | 507 kts | 176° |
| 2026-05-08 07:24 | 13.83760 | 8.32140 | 34961 ft | 507 kts | 176° |
| 2026-05-08 07:25 | 13.76724 | 8.32806 | 34960 ft | 507 kts | 176° |
| 2026-05-08 07:26 | 13.66221 | 8.33779 | 34963 ft | 508 kts | 176° |
| 2026-05-08 07:26 | 13.59178 | 8.34434 | 34961 ft | 508 kts | 176° |
| 2026-05-08 07:27 | 13.52145 | 8.35090 | 34961 ft | 508 kts | 176° |
| 2026-05-08 07:27 | 13.45107 | 8.35750 | 34959 ft | 508 kts | 176° |
| 2026-05-08 07:28 | 13.38068 | 8.36410 | 34961 ft | 508 kts | 176° |
| 2026-05-08 07:28 | 13.31065 | 8.37067 | 34958 ft | 508 kts | 176° |
| 2026-05-08 07:29 | 13.24017 | 8.37728 | 34958 ft | 508 kts | 176° |
| 2026-05-08 07:29 | 13.16980 | 8.38390 | 34963 ft | 508 kts | 176° |
| 2026-05-08 07:30 | 13.09936 | 8.39052 | 34961 ft | 508 kts | 176° |
| 2026-05-08 07:30 | 13.02888 | 8.39728 | 34960 ft | 508 kts | 176° |
| 2026-05-08 07:31 | 12.95839 | 8.40430 | 34962 ft | 508 kts | 175° |
| 2026-05-08 07:31 | 12.88804 | 8.41134 | 34960 ft | 507 kts | 175° |
| 2026-05-08 07:32 | 12.81782 | 8.41838 | 34959 ft | 507 kts | 175° |
| 2026-05-08 07:32 | 12.74749 | 8.42532 | 34961 ft | 507 kts | 175° |
| 2026-05-08 07:33 | 12.67718 | 8.43217 | 34958 ft | 507 kts | 175° |
| 2026-05-08 07:33 | 12.60743 | 8.43902 | 34961 ft | 507 kts | 175° |
| 2026-05-08 07:34 | 12.53718 | 8.44597 | 34958 ft | 507 kts | 175° |
| 2026-05-08 07:34 | 12.46700 | 8.45290 | 34962 ft | 506 kts | 175° |
| 2026-05-08 07:35 | 12.39684 | 8.45984 | 34963 ft | 506 kts | 175° |
| 2026-05-08 07:35 | 12.32674 | 8.46678 | 34960 ft | 506 kts | 175° |
| 2026-05-08 07:36 | 12.25658 | 8.47372 | 34962 ft | 506 kts | 175° |
| 2026-05-08 07:36 | 12.18679 | 8.48064 | 34958 ft | 506 kts | 175° |
| 2026-05-08 07:37 | 12.11673 | 8.48760 | 34963 ft | 505 kts | 175° |
| 2026-05-08 07:37 | 12.04672 | 8.49468 | 34957 ft | 505 kts | 174° |
| 2026-05-08 07:38 | 11.97722 | 8.50579 | 34960 ft | 506 kts | 171° |
| 2026-05-08 07:38 | 11.90789 | 8.51819 | 34960 ft | 505 kts | 171° |
| 2026-05-08 07:39 | 11.83901 | 8.53057 | 34963 ft | 505 kts | 171° |
| 2026-05-08 07:39 | 11.76966 | 8.54301 | 34961 ft | 506 kts | 171° |
| 2026-05-08 07:40 | 11.70027 | 8.55542 | 34958 ft | 506 kts | 171° |
| 2026-05-08 07:40 | 11.63081 | 8.56784 | 34961 ft | 507 kts | 170° |
| 2026-05-08 07:41 | 11.56133 | 8.58025 | 34962 ft | 507 kts | 170° |
| 2026-05-08 07:41 | 11.49182 | 8.59267 | 34960 ft | 507 kts | 170° |
| 2026-05-08 07:42 | 11.42227 | 8.60509 | 34961 ft | 507 kts | 170° |
| 2026-05-08 07:42 | 11.35268 | 8.61751 | 34960 ft | 507 kts | 170° |
| 2026-05-08 07:43 | 11.28357 | 8.62984 | 34962 ft | 507 kts | 170° |
| 2026-05-08 07:43 | 11.21405 | 8.64224 | 34959 ft | 507 kts | 170° |
| 2026-05-08 07:44 | 11.14449 | 8.65465 | 34960 ft | 507 kts | 170° |
| 2026-05-08 07:44 | 11.08665 | 8.66497 | 34960 ft | 507 kts | 170° |
| 2026-05-08 07:45 | 11.01701 | 8.67741 | 34958 ft | 507 kts | 170° |
| 2026-05-08 07:45 | 10.94740 | 8.68985 | 34960 ft | 507 kts | 170° |
| 2026-05-08 07:46 | 10.87787 | 8.70148 | 34961 ft | 507 kts | 173° |
| 2026-05-08 07:46 | 10.80782 | 8.70955 | 34962 ft | 507 kts | 174° |
| 2026-05-08 07:47 | 10.73817 | 8.71737 | 34961 ft | 507 kts | 173° |
| 2026-05-08 07:47 | 10.66800 | 8.72533 | 34960 ft | 507 kts | 173° |
| 2026-05-08 07:48 | 10.59796 | 8.73331 | 34961 ft | 507 kts | 173° |
| 2026-05-08 07:48 | 10.52787 | 8.74131 | 34958 ft | 507 kts | 173° |
| 2026-05-08 07:49 | 10.45776 | 8.74930 | 34962 ft | 507 kts | 173° |
| 2026-05-08 07:49 | 10.38766 | 8.75730 | 34958 ft | 507 kts | 173° |
| 2026-05-08 07:50 | 10.31754 | 8.76530 | 34960 ft | 507 kts | 173° |
| 2026-05-08 07:50 | 10.24742 | 8.77329 | 34954 ft | 507 kts | 173° |
| 2026-05-08 07:51 | 10.17769 | 8.78123 | 34955 ft | 507 kts | 173° |
| 2026-05-08 07:51 | 10.10756 | 8.78922 | 34952 ft | 507 kts | 173° |
| 2026-05-08 07:52 | 10.03745 | 8.79721 | 34948 ft | 507 kts | 173° |
| 2026-05-08 07:52 | 9.96752 | 8.80517 | 34951 ft | 507 kts | 173° |
| 2026-05-08 07:53 | 9.89747 | 8.81313 | 34953 ft | 506 kts | 173° |
| 2026-05-08 07:53 | 9.82733 | 8.82114 | 34948 ft | 506 kts | 173° |
| 2026-05-08 07:54 | 9.75733 | 8.82914 | 34951 ft | 506 kts | 173° |
| 2026-05-08 07:54 | 9.68776 | 8.83710 | 34951 ft | 506 kts | 173° |
| 2026-05-08 07:55 | 9.61764 | 8.84533 | 34948 ft | 507 kts | 172° |
| 2026-05-08 07:55 | 9.54769 | 8.85504 | 34952 ft | 507 kts | 171° |
| 2026-05-08 07:56 | 9.47815 | 8.86492 | 34949 ft | 507 kts | 171° |
| 2026-05-08 07:56 | 9.40830 | 8.87476 | 34948 ft | 507 kts | 171° |
| 2026-05-08 07:57 | 9.33827 | 8.88457 | 34944 ft | 507 kts | 171° |
| 2026-05-08 07:57 | 9.26825 | 8.89437 | 34975 ft | 507 kts | 171° |
| 2026-05-08 07:58 | 9.19811 | 8.90417 | 34976 ft | 507 kts | 171° |
| 2026-05-08 07:58 | 9.12862 | 8.91388 | 34977 ft | 507 kts | 171° |
| 2026-05-08 07:59 | 9.05855 | 8.92366 | 34978 ft | 508 kts | 171° |
| 2026-05-08 07:59 | 8.98849 | 8.93345 | 34979 ft | 508 kts | 171° |
| 2026-05-08 08:00 | 8.91845 | 8.94323 | 34978 ft | 508 kts | 171° |
| 2026-05-08 08:00 | 8.84870 | 8.95297 | 34978 ft | 508 kts | 171° |
| 2026-05-08 08:01 | 8.77866 | 8.96274 | 34978 ft | 508 kts | 171° |
| 2026-05-08 08:01 | 8.70867 | 8.97251 | 34970 ft | 508 kts | 171° |
| 2026-05-08 08:02 | 8.63859 | 8.98230 | 34945 ft | 508 kts | 171° |
| 2026-05-08 08:02 | 8.56845 | 8.99210 | 34944 ft | 508 kts | 171° |
| 2026-05-08 08:03 | 8.49822 | 9.00194 | 34940 ft | 508 kts | 171° |
| 2026-05-08 08:03 | 8.42810 | 9.01174 | 34945 ft | 508 kts | 171° |
| 2026-05-08 08:04 | 8.35835 | 9.02059 | 34941 ft | 508 kts | 172° |
| 2026-05-08 08:04 | 8.28800 | 9.02898 | 34943 ft | 508 kts | 172° |
| 2026-05-08 08:05 | 8.21776 | 9.03738 | 34945 ft | 508 kts | 172° |
| 2026-05-08 08:05 | 8.14749 | 9.04584 | 34940 ft | 508 kts | 172° |
| 2026-05-08 08:06 | 8.07714 | 9.05441 | 34940 ft | 508 kts | 172° |
| 2026-05-08 08:06 | 8.00699 | 9.06383 | 34941 ft | 508 kts | 171° |
| 2026-05-08 08:07 | 7.93741 | 9.07334 | 34942 ft | 508 kts | 171° |
| 2026-05-08 08:07 | 7.86734 | 9.08293 | 34939 ft | 508 kts | 171° |
| 2026-05-08 08:08 | 7.79723 | 9.09250 | 34940 ft | 508 kts | 171° |
| 2026-05-08 08:08 | 7.72711 | 9.10205 | 34940 ft | 508 kts | 171° |
| 2026-05-08 08:09 | 7.65704 | 9.11158 | 34944 ft | 508 kts | 171° |
| 2026-05-08 08:09 | 7.58692 | 9.12112 | 34943 ft | 509 kts | 171° |
| 2026-05-08 08:10 | 7.51674 | 9.13067 | 34940 ft | 509 kts | 171° |
| 2026-05-08 08:10 | 7.44652 | 9.14022 | 34943 ft | 509 kts | 171° |
| 2026-05-08 08:11 | 7.37634 | 9.14977 | 34942 ft | 508 kts | 171° |
| 2026-05-08 08:11 | 7.30664 | 9.15926 | 34951 ft | 508 kts | 171° |
| 2026-05-08 08:12 | 7.23650 | 9.16882 | 34974 ft | 508 kts | 171° |
| 2026-05-08 08:12 | 7.16645 | 9.17839 | 34977 ft | 508 kts | 171° |
| 2026-05-08 08:13 | 7.09638 | 9.18774 | 34975 ft | 508 kts | 172° |